Time;durP1;ratioP1;P1;durP2;ratioP2;P2;SDS_P1;SDS_P2;PMS_P1;PMS_P2;Temp;Humidity;BMP_temperature;BMP_pressure;BME280_temperature;BME280_humidity;BME280_pressure;Samples;Min_cycle;Max_cycle;Signal;HPM_P1;HPM_P2
2022/04/18 00:00:41;;;;;;;5.25;4.50;;;20.80;99.90;;;;;;5065980;28;20048;-70
2022/04/18 00:03:08;;;;;;;4.47;3.70;;;20.90;99.90;;;;;;5067962;28;20058;-67
2022/04/18 00:05:35;;;;;;;6.00;4.35;;;21.00;99.90;;;;;;5065269;28;20402;-67
2022/04/18 00:08:03;;;;;;;7.30;5.32;;;21.30;99.90;;;;;;5063860;28;20017;-69
2022/04/18 00:10:30;;;;;;;8.70;5.72;;;21.50;99.90;;;;;;5065532;28;20025;-67
2022/04/18 00:12:57;;;;;;;9.00;5.70;;;21.60;99.90;;;;;;5065756;28;20055;-72
2022/04/18 00:15:24;;;;;;;3.78;3.08;;;21.80;99.90;;;;;;5049240;28;20017;-73
2022/04/18 00:17:51;;;;;;;2.80;2.50;;;21.90;99.90;;;;;;5063773;28;20032;-70
2022/04/18 00:20:18;;;;;;;7.03;3.50;;;22.10;99.90;;;;;;5064035;28;20073;-75
2022/04/18 00:22:45;;;;;;;3.85;3.55;;;22.20;99.90;;;;;;5059052;28;20028;-72
2022/04/18 00:25:12;;;;;;;3.50;3.13;;;22.40;99.90;;;;;;5062205;28;20024;-74
2022/04/18 00:27:39;;;;;;;5.72;4.65;;;22.70;99.90;;;;;;5061328;28;20032;-71
2022/04/18 00:30:07;;;;;;;3.05;2.25;;;22.80;99.90;;;;;;5061481;28;20028;-71
2022/04/18 00:32:35;;;;;;;6.68;4.80;;;23.00;99.90;;;;;;5061785;28;20017;-71
2022/04/18 00:35:05;;;;;;;6.03;4.80;;;23.10;99.90;;;;;;5062510;28;20024;-69
2022/04/18 00:37:32;;;;;;;4.53;3.60;;;23.30;99.90;;;;;;5051712;28;20056;-73
2022/04/18 00:39:59;;;;;;;4.63;3.33;;;23.40;99.90;;;;;;5037514;28;20052;-75
2022/04/18 00:42:26;;;;;;;2.80;2.38;;;23.70;99.90;;;;;;5041811;28;20464;-74
2022/04/18 00:44:53;;;;;;;3.45;3.13;;;24.10;99.90;;;;;;5039403;28;20092;-72
2022/04/18 00:47:20;;;;;;;3.33;2.08;;;24.10;99.90;;;;;;5040057;28;20127;-71
2022/04/18 00:49:47;;;;;;;6.30;3.28;;;24.10;99.90;;;;;;5038578;28;20306;-73
2022/04/18 00:52:15;;;;;;;3.47;2.40;;;24.40;99.90;;;;;;5039634;28;20020;-74
2022/04/18 00:54:43;;;;;;;4.43;2.17;;;24.40;99.90;;;;;;5038486;28;20029;-73
2022/04/18 00:57:13;;;;;;;3.72;2.10;;;24.30;99.90;;;;;;5042310;28;20024;-73
2022/04/18 00:59:40;;;;;;;3.78;2.47;;;24.50;99.90;;;;;;5037274;28;20067;-74
2022/04/18 01:02:13;;;;;;;2.53;1.77;;;24.90;99.90;;;;;;5043134;28;20092;-75
2022/04/18 01:04:40;;;;;;;3.63;1.88;;;25.20;99.90;;;;;;5043330;28;20035;-72
2022/04/18 01:07:07;;;;;;;5.18;4.60;;;25.40;99.90;;;;;;5044835;28;20021;-71
2022/04/18 01:09:34;;;;;;;3.63;2.20;;;25.60;99.90;;;;;;5044664;28;20128;-73
2022/04/18 01:12:01;;;;;;;4.38;2.45;;;25.70;99.90;;;;;;5041767;28;20665;-70
2022/04/18 01:14:28;;;;;;;4.63;2.00;;;25.90;99.90;;;;;;5041801;28;20483;-74
2022/04/18 01:16:55;;;;;;;3.35;2.03;;;26.10;99.90;;;;;;5042724;28;20389;-70
2022/04/18 01:19:22;;;;;;;3.40;1.80;;;26.20;99.90;;;;;;5042087;28;20029;-70
2022/04/18 01:21:49;;;;;;;3.13;1.85;;;26.30;99.90;;;;;;5037652;28;20143;-73
2022/04/18 01:29:47;;;;;;;3.53;2.00;;;26.40;99.90;;;;;;5044249;28;20044;-71
2022/04/18 01:32:14;;;;;;;4.40;2.17;;;26.50;99.90;;;;;;5044161;28;20148;-73
2022/04/18 01:34:41;;;;;;;6.93;4.50;;;26.70;99.90;;;;;;5042991;28;20028;-72
2022/04/18 01:37:07;;;;;;;4.85;3.28;;;27.00;99.90;;;;;;5045033;28;20186;-70
2022/04/18 01:39:35;;;;;;;11.60;9.82;;;27.10;99.90;;;;;;5044404;28;20025;-73
2022/04/18 01:42:02;;;;;;;6.65;4.30;;;27.30;99.90;;;;;;5024597;28;20056;-71
2022/04/18 01:44:29;;;;;;;5.65;3.60;;;27.30;99.90;;;;;;5042223;28;20383;-74
2022/04/18 01:46:56;;;;;;;6.10;3.70;;;27.50;99.90;;;;;;5043055;28;20039;-71
2022/04/18 01:49:23;;;;;;;6.13;3.15;;;27.30;99.80;;;;;;5042103;28;20044;-72
2022/04/18 01:51:50;;;;;;;3.83;2.42;;;27.40;99.90;;;;;;5042338;28;20044;-72
2022/04/18 01:54:17;;;;;;;3.75;1.80;;;27.70;99.90;;;;;;5043841;28;20384;-72
2022/04/18 01:56:44;;;;;;;3.40;1.58;;;27.90;99.50;;;;;;4686356;28;9999814;-69
2022/04/18 01:59:12;;;;;;;4.28;1.63;;;27.90;99.70;;;;;;5036967;28;20021;-72
2022/04/18 02:01:39;;;;;;;3.28;1.40;;;27.90;99.20;;;;;;5035057;28;20049;-71
2022/04/18 02:04:06;;;;;;;4.57;2.00;;;27.90;99.40;;;;;;5041728;28;20148;-73
2022/04/18 02:06:34;;;;;;;4.20;2.00;;;27.80;99.00;;;;;;5040108;28;20021;-72
2022/04/18 02:09:01;;;;;;;4.55;2.25;;;27.90;98.90;;;;;;5041961;28;20025;-71
2022/04/18 02:11:28;;;;;;;3.13;1.85;;;28.20;98.80;;;;;;5038324;28;20509;-72
2022/04/18 02:13:56;;;;;;;5.35;2.70;;;28.40;97.40;;;;;;5040951;28;20116;-72
2022/04/18 02:16:23;;;;;;;4.00;2.70;;;28.70;96.00;;;;;;5040196;28;20033;-71
2022/04/18 02:18:51;;;;;;;4.70;2.67;;;28.90;97.00;;;;;;5038539;28;20032;-67
2022/04/18 02:21:19;;;;;;;3.70;2.20;;;28.80;97.00;;;;;;5038812;28;20163;-70
2022/04/18 02:23:46;;;;;;;2.83;1.85;;;28.80;96.70;;;;;;5039732;28;20140;-70
2022/04/18 02:26:13;;;;;;;1.85;1.52;;;28.80;96.10;;;;;;5038031;28;20020;-72
2022/04/18 02:28:41;;;;;;;2.97;1.73;;;28.70;96.70;;;;;;5039817;28;20036;-68
2022/04/18 02:31:09;;;;;;;3.58;2.05;;;28.50;95.90;;;;;;5039641;28;20039;-71
2022/04/18 02:33:36;;;;;;;4.05;1.83;;;28.50;96.70;;;;;;5039518;28;20025;-71
2022/04/18 02:36:03;;;;;;;4.07;1.83;;;28.50;95.80;;;;;;5038568;28;20040;-71
2022/04/18 02:38:30;;;;;;;3.83;1.98;;;28.50;96.40;;;;;;5040031;28;20041;-68
2022/04/18 02:40:57;;;;;;;3.50;1.95;;;28.60;95.90;;;;;;5039934;28;20013;-70
2022/04/18 02:43:24;;;;;;;2.35;1.20;;;28.50;95.90;;;;;;5036587;28;20021;-70
2022/04/18 02:45:51;;;;;;;2.40;1.10;;;28.70;95.50;;;;;;5037901;28;20406;-71
2022/04/18 02:48:18;;;;;;;1.95;0.93;;;28.80;94.80;;;;;;5036124;28;20036;-72
2022/04/18 02:50:46;;;;;;;3.60;2.22;;;29.10;93.70;;;;;;5035886;28;20910;-69
2022/04/18 02:53:13;;;;;;;8.75;6.10;;;29.40;94.60;;;;;;5035241;28;20487;-68
2022/04/18 02:55:40;;;;;;;6.65;4.82;;;29.40;94.00;;;;;;5036990;28;20052;-71
2022/04/18 02:58:07;;;;;;;1.35;0.90;;;29.30;94.10;;;;;;5037089;28;20024;-72
2022/04/18 03:00:34;;;;;;;1.98;1.13;;;29.20;93.50;;;;;;5040706;28;20031;-68
2022/04/18 03:03:01;;;;;;;1.50;0.73;;;29.10;93.40;;;;;;5040449;28;20037;-68
2022/04/18 03:05:28;;;;;;;2.53;1.00;;;29.20;93.20;;;;;;5040208;28;20506;-68
2022/04/18 03:07:56;;;;;;;1.00;0.68;;;29.30;94.10;;;;;;5038063;28;20033;-69
2022/04/18 03:11:02;;;;;;;0.90;0.65;;;29.40;93.20;;;;;;5039611;28;20148;-71
2022/04/18 03:13:10;;;;;;;1.95;0.95;;;29.30;93.00;;;;;;5038452;28;20032;-68
2022/04/18 03:15:37;;;;;;;1.88;0.85;;;29.50;93.50;;;;;;5039755;28;20033;-68
2022/04/18 03:18:05;;;;;;;0.98;0.88;;;29.60;93.00;;;;;;5038531;28;20387;-69
2022/04/18 03:20:32;;;;;;;3.25;0.98;;;29.70;92.90;;;;;;5039025;28;20052;-67
2022/04/18 03:22:59;;;;;;;3.67;1.00;;;29.60;93.20;;;;;;5038402;28;20385;-67
2022/04/18 03:25:26;;;;;;;2.40;0.80;;;29.80;93.00;;;;;;5036017;28;20079;-68
2022/04/18 03:27:53;;;;;;;2.50;1.20;;;29.80;92.70;;;;;;5036884;28;20047;-73
2022/04/18 03:30:20;;;;;;;4.22;1.50;;;29.80;92.00;;;;;;5040085;28;20931;-70
2022/04/18 03:32:47;;;;;;;2.88;1.73;;;29.90;92.50;;;;;;5037612;28;20029;-73
2022/04/18 03:35:14;;;;;;;3.50;1.85;;;30.00;91.80;;;;;;5038549;28;20049;-71
2022/04/18 03:40:27;;;;;;;3.38;1.77;;;30.00;92.20;;;;;;5039064;28;20028;-73
2022/04/18 03:42:53;;;;;;;3.33;1.77;;;30.10;91.60;;;;;;5037877;28;20196;-75
2022/04/18 03:45:21;;;;;;;3.08;1.92;;;30.30;91.90;;;;;;5038669;28;20612;-69
2022/04/18 03:47:48;;;;;;;5.78;2.15;;;30.40;92.10;;;;;;5038972;28;20503;-74
2022/04/18 03:50:15;;;;;;;6.15;4.30;;;30.30;91.10;;;;;;5038878;28;20029;-70
2022/04/18 03:52:42;;;;;;;10.38;8.52;;;30.30;91.40;;;;;;5038774;28;20017;-72
2022/04/18 03:55:11;;;;;;;2.50;2.30;;;30.30;91.10;;;;;;5038008;28;20061;-72
2022/04/18 03:57:38;;;;;;;5.10;1.23;;;30.50;91.20;;;;;;5039291;28;20587;-73
2022/04/18 04:00:07;;;;;;;0.55;0.50;;;30.70;89.00;;;;;;5038855;28;20091;-72
2022/04/18 04:02:34;;;;;;;2.60;1.60;;;31.00;86.70;;;;;;5037570;28;20104;-68
2022/04/18 04:05:02;;;;;;;3.40;1.58;;;30.70;87.60;;;;;;5038655;28;20395;-74
2022/04/18 04:07:29;;;;;;;1.85;1.40;;;30.60;90.20;;;;;;5039846;28;20045;-74
2022/04/18 04:09:57;;;;;;;4.20;1.83;;;30.90;90.30;;;;;;5040180;28;20037;-69
2022/04/18 04:12:25;;;;;;;1.25;0.80;;;31.00;88.60;;;;;;5040505;28;20839;-72
2022/04/18 04:14:54;;;;;;;2.15;1.25;;;31.00;88.00;;;;;;5022128;28;20048;-74
2022/04/18 04:17:22;;;;;;;1.45;0.90;;;31.00;88.50;;;;;;5037763;28;20410;-71
2022/04/18 04:19:50;;;;;;;2.22;1.10;;;30.90;88.10;;;;;;5039427;28;20480;-75
2022/04/18 04:22:17;;;;;;;1.95;0.93;;;30.90;84.60;;;;;;5040346;28;20491;-74
2022/04/18 04:24:44;;;;;;;1.65;1.00;;;30.70;85.00;;;;;;5040045;28;20029;-71
2022/04/18 04:27:12;;;;;;;1.67;1.08;;;30.70;86.70;;;;;;5038940;28;20029;-74
2022/04/18 04:29:39;;;;;;;2.75;1.00;;;30.70;87.00;;;;;;5039731;28;20120;-70
2022/04/18 04:32:06;;;;;;;4.15;1.02;;;30.70;83.60;;;;;;5038831;28;20032;-74
2022/04/18 04:34:33;;;;;;;2.25;1.30;;;30.90;82.80;;;;;;5041145;28;20471;-74
2022/04/18 04:37:01;;;;;;;2.63;1.70;;;30.70;84.50;;;;;;5043151;28;20312;-73
2022/04/18 04:39:28;;;;;;;3.15;1.90;;;30.70;81.70;;;;;;5044248;28;20017;-73
2022/04/18 04:41:55;;;;;;;5.90;3.95;;;30.40;83.00;;;;;;5041964;28;20112;-69
2022/04/18 04:44:23;;;;;;;3.08;1.50;;;30.20;83.50;;;;;;5045155;28;20055;-73
2022/04/18 04:46:51;;;;;;;1.70;1.10;;;30.20;84.70;;;;;;5041975;28;20784;-76
2022/04/18 04:49:18;;;;;;;2.97;1.02;;;30.30;81.40;;;;;;5042920;28;20120;-73
2022/04/18 04:51:45;;;;;;;0.95;0.68;;;30.50;82.60;;;;;;5043519;28;20056;-72
2022/04/18 04:54:12;;;;;;;1.33;0.95;;;30.70;84.20;;;;;;5044373;28;20183;-73
2022/04/18 04:56:39;;;;;;;2.00;0.85;;;30.70;83.40;;;;;;5040528;28;20428;-69
2022/04/18 04:59:07;;;;;;;3.85;1.10;;;30.80;82.20;;;;;;5045101;28;20102;-73
2022/04/18 05:01:34;;;;;;;2.05;0.95;;;30.90;79.90;;;;;;5043650;28;20103;-72
2022/04/18 05:04:01;;;;;;;3.85;2.60;;;30.80;79.70;;;;;;5027538;28;20946;-73
2022/04/18 05:06:28;;;;;;;2.45;1.42;;;30.90;77.10;;;;;;5041395;28;20017;-68
2022/04/18 05:08:55;;;;;;;9.60;8.15;;;30.80;78.20;;;;;;5043545;28;20029;-70
2022/04/18 05:11:23;;;;;;;8.10;7.10;;;30.80;76.70;;;;;;5043667;28;20128;-70
2022/04/18 05:13:50;;;;;;;2.03;1.13;;;30.70;77.30;;;;;;5042000;28;20032;-71
2022/04/18 05:16:17;;;;;;;3.58;2.90;;;30.70;74.20;;;;;;5042113;28;20529;-70
2022/04/18 05:18:45;;;;;;;2.20;1.10;;;30.50;76.60;;;;;;5039025;28;20029;-68
2022/04/18 05:21:12;;;;;;;5.60;2.35;;;30.50;75.10;;;;;;5040557;28;20159;-74
2022/04/18 05:23:39;;;;;;;4.97;3.90;;;30.60;76.00;;;;;;5040122;28;20147;-72
2022/04/18 05:26:06;;;;;;;1.85;1.35;;;30.60;76.20;;;;;;5042547;28;20588;-70
2022/04/18 05:28:33;;;;;;;3.78;1.65;;;30.70;74.50;;;;;;5043917;28;20032;-71
2022/04/18 05:31:00;;;;;;;1.10;0.70;;;30.50;75.60;;;;;;5040564;28;20032;-71
2022/04/18 05:33:28;;;;;;;1.80;0.95;;;30.50;76.40;;;;;;5040596;28;20052;-70
2022/04/18 05:35:55;;;;;;;2.75;1.67;;;30.40;77.50;;;;;;5041918;28;20021;-73
2022/04/18 05:38:22;;;;;;;1.70;0.90;;;30.30;76.80;;;;;;5042175;28;20076;-74
2022/04/18 05:40:49;;;;;;;1.95;1.13;;;30.20;74.00;;;;;;5041422;28;20079;-71
2022/04/18 05:43:19;;;;;;;1.80;0.80;;;30.10;74.00;;;;;;5039922;28;20031;-70
2022/04/18 05:45:50;;;;;;;3.75;1.13;;;29.80;74.50;;;;;;5039477;28;20146;-70
2022/04/18 05:48:18;;;;;;;2.92;1.17;;;29.70;75.10;;;;;;5042738;28;20017;-75
2022/04/18 05:50:45;;;;;;;1.23;0.80;;;29.80;77.50;;;;;;5044085;28;20023;-75
2022/04/18 05:53:13;;;;;;;2.10;1.50;;;29.80;75.80;;;;;;5044542;28;20021;-71
2022/04/18 05:55:41;;;;;;;1.15;1.05;;;29.70;76.30;;;;;;5041346;28;20033;-73
2022/04/18 05:58:08;;;;;;;1.08;0.98;;;29.30;77.50;;;;;;5043289;28;20032;-72
2022/04/18 06:00:36;;;;;;;1.40;0.90;;;29.10;77.50;;;;;;5023286;28;20407;-70
2022/04/18 06:03:03;;;;;;;1.33;0.85;;;29.00;77.20;;;;;;5022289;28;20036;-73
2022/04/18 06:05:30;;;;;;;1.20;0.82;;;28.70;77.30;;;;;;5043707;28;20598;-71
2022/04/18 06:07:58;;;;;;;1.73;0.93;;;28.70;76.50;;;;;;5041074;28;20622;-70
2022/04/18 06:10:25;;;;;;;1.98;0.88;;;28.80;76.90;;;;;;5040399;28;20504;-70
2022/04/18 06:12:52;;;;;;;1.95;1.00;;;28.90;77.30;;;;;;5019932;28;20033;-73
2022/04/18 06:15:21;;;;;;;1.98;1.17;;;28.80;77.60;;;;;;5040213;28;20021;-71
2022/04/18 06:17:48;;;;;;;1.65;0.90;;;28.70;79.20;;;;;;5040038;28;20479;-71
2022/04/18 06:20:16;;;;;;;3.13;0.90;;;28.60;79.50;;;;;;5043363;28;20127;-70
2022/04/18 06:22:44;;;;;;;4.20;3.42;;;28.60;80.70;;;;;;5042820;28;20123;-68
2022/04/18 06:25:11;;;;;;;4.10;2.42;;;28.50;82.50;;;;;;5025012;28;20465;-72
2022/04/18 06:27:38;;;;;;;7.25;4.68;;;28.50;82.40;;;;;;5039798;28;20021;-72
2022/04/18 06:30:06;;;;;;;2.10;1.60;;;28.70;81.80;;;;;;5045046;28;20487;-71
2022/04/18 06:32:36;;;;;;;2.45;1.40;;;28.90;81.30;;;;;;5045563;28;20395;-70
2022/04/18 06:35:04;;;;;;;2.35;1.00;;;28.90;80.70;;;;;;5044704;28;20560;-72
2022/04/18 06:37:32;;;;;;;1.73;1.13;;;28.90;80.20;;;;;;5040374;28;20056;-70
2022/04/18 06:39:59;;;;;;;2.13;0.90;;;29.00;81.90;;;;;;5042648;28;20017;-71
2022/04/18 06:42:27;;;;;;;1.40;0.98;;;29.00;83.60;;;;;;5024199;28;20039;-72
2022/04/18 06:44:54;;;;;;;3.05;1.30;;;28.90;84.10;;;;;;5042133;28;20573;-72
2022/04/18 06:47:21;;;;;;;7.65;4.50;;;28.60;85.80;;;;;;5042083;28;20029;-72
2022/04/18 06:49:48;;;;;;;4.00;3.33;;;28.30;86.40;;;;;;5042904;28;20509;-72
2022/04/18 06:52:15;;;;;;;7.28;3.80;;;28.10;87.70;;;;;;5042070;28;20029;-70
2022/04/18 06:54:42;;;;;;;1.95;1.52;;;27.90;89.70;;;;;;5043891;28;20551;-71
2022/04/18 06:57:11;;;;;;;1.80;1.50;;;27.60;89.60;;;;;;5041944;28;20368;-73
2022/04/18 06:59:38;;;;;;;2.63;1.60;;;27.40;89.90;;;;;;5042894;28;20025;-72
2022/04/18 07:02:06;;;;;;;4.05;2.08;;;27.00;90.70;;;;;;5042368;28;20036;-71
2022/04/18 07:04:33;;;;;;;4.72;3.45;;;26.40;91.50;;;;;;5042572;28;20678;-71
2022/04/18 07:07:00;;;;;;;4.38;3.03;;;26.00;92.00;;;;;;5041934;28;20033;-74
2022/04/18 07:09:27;;;;;;;2.47;1.48;;;25.60;92.20;;;;;;5041650;28;20033;-71
2022/04/18 07:11:54;;;;;;;5.55;3.00;;;25.40;92.30;;;;;;5041588;28;20025;-71
2022/04/18 07:14:22;;;;;;;3.70;2.05;;;25.40;93.80;;;;;;5042031;28;20032;-70
2022/04/18 07:16:49;;;;;;;2.10;1.58;;;25.40;92.90;;;;;;5040337;28;20095;-73
2022/04/18 07:19:16;;;;;;;5.53;3.28;;;25.40;92.90;;;;;;5039278;28;20017;-70
2022/04/18 07:21:43;;;;;;;5.25;2.40;;;25.20;92.70;;;;;;5040081;28;20036;-71
2022/04/18 07:24:10;;;;;;;4.13;2.13;;;25.00;93.70;;;;;;5042364;28;20040;-71
2022/04/18 07:26:37;;;;;;;3.10;1.67;;;24.60;94.60;;;;;;5040783;28;20037;-74
2022/04/18 07:29:07;;;;;;;3.05;1.30;;;24.30;95.50;;;;;;5039424;28;20032;-73
2022/04/18 07:31:34;;;;;;;2.17;1.40;;;24.10;96.20;;;;;;5037784;28;20036;-71
2022/04/18 07:34:01;;;;;;;2.90;1.25;;;23.90;96.90;;;;;;5038787;28;20171;-73
2022/04/18 07:36:28;;;;;;;2.75;1.67;;;23.80;97.80;;;;;;5038925;28;20609;-72
2022/04/18 07:38:55;;;;;;;2.08;1.27;;;23.80;98.40;;;;;;5041300;28;20105;-71
2022/04/18 07:41:24;;;;;;;4.75;2.30;;;23.50;98.80;;;;;;5041346;28;20610;-69
2022/04/18 07:43:52;;;;;;;2.60;1.23;;;23.20;99.50;;;;;;5042089;28;20043;-71
2022/04/18 07:46:19;;;;;;;2.33;1.23;;;23.00;99.90;;;;;;5041716;28;20033;-73
2022/04/18 07:48:48;;;;;;;2.55;1.70;;;22.80;99.90;;;;;;5042214;28;20039;-69
2022/04/18 07:51:35;;;;;;;2.58;1.48;;;22.70;99.90;;;;;;5043327;28;20456;-72
2022/04/18 07:54:12;;;;;;;3.97;1.73;;;22.80;99.90;;;;;;5042805;28;20053;-68
2022/04/18 07:56:39;;;;;;;3.65;1.50;;;22.70;99.90;;;;;;5025856;28;20029;-69
2022/04/18 07:59:07;;;;;;;3.40;2.05;;;22.80;99.90;;;;;;5042151;28;20116;-70
2022/04/18 08:01:34;;;;;;;3.15;1.90;;;22.90;99.90;;;;;;5042927;28;20028;-69
2022/04/18 08:04:02;;;;;;;2.58;1.60;;;22.70;99.90;;;;;;5041565;28;20129;-73
2022/04/18 08:06:30;;;;;;;4.22;1.45;;;22.50;99.90;;;;;;5043809;28;20024;-67
2022/04/18 08:08:57;;;;;;;4.13;1.70;;;22.40;99.90;;;;;;5044403;28;20344;-69
2022/04/18 08:11:24;;;;;;;2.83;1.65;;;22.20;99.90;;;;;;5046100;28;20036;-67
2022/04/18 08:13:52;;;;;;;3.15;1.60;;;22.10;99.90;;;;;;5045480;28;20036;-72
2022/04/18 08:16:19;;;;;;;15.45;11.10;;;22.10;99.90;;;;;;5046338;28;20028;-75
2022/04/18 08:18:46;;;;;;;12.00;8.27;;;21.90;99.90;;;;;;5043341;28;20045;-69
2022/04/18 08:21:15;;;;;;;6.55;5.82;;;21.80;99.90;;;;;;5044202;28;20025;-70
2022/04/18 08:23:44;;;;;;;9.13;5.30;;;21.80;99.90;;;;;;5045086;28;20029;-69
2022/04/18 08:26:12;;;;;;;8.82;4.95;;;21.70;99.90;;;;;;5045172;28;20044;-71
2022/04/18 08:28:40;;;;;;;7.00;5.07;;;21.70;99.90;;;;;;5043652;28;20021;-72
2022/04/18 08:31:07;;;;;;;6.72;4.22;;;21.80;99.90;;;;;;5044485;28;20037;-71
2022/04/18 08:33:35;;;;;;;6.82;4.20;;;21.80;99.90;;;;;;5044034;28;20032;-72
2022/04/18 08:36:05;;;;;;;6.45;4.20;;;21.90;99.90;;;;;;5046309;28;20445;-68
2022/04/18 08:38:33;;;;;;;4.63;2.85;;;22.00;99.90;;;;;;5041968;28;20163;-70
2022/04/18 08:41:07;;;;;;;6.00;4.47;;;22.00;99.90;;;;;;5042322;28;20095;-71
2022/04/18 08:43:35;;;;;;;3.95;3.30;;;22.10;99.90;;;;;;5041189;28;20044;-70
2022/04/18 08:46:09;;;;;;;5.50;2.75;;;22.00;99.90;;;;;;5042767;28;20025;-67
2022/04/18 08:54:08;;;;;;;4.40;2.40;;;21.70;99.90;;;;;;5042053;28;20112;-74
2022/04/18 08:56:35;;;;;;;3.65;2.00;;;21.70;99.90;;;;;;5040405;28;20029;-75
2022/04/18 08:59:02;;;;;;;3.05;1.50;;;21.60;99.90;;;;;;5041181;28;20103;-69
2022/04/18 09:01:29;;;;;;;3.15;1.92;;;21.60;99.90;;;;;;5042859;28;20479;-68
2022/04/18 09:03:58;;;;;;;2.88;1.58;;;21.50;99.90;;;;;;5044529;28;20029;-68
2022/04/18 09:06:25;;;;;;;2.20;1.38;;;21.40;99.90;;;;;;5041542;28;20056;-70
2022/04/18 09:08:57;;;;;;;4.25;1.75;;;21.40;99.90;;;;;;5038230;28;20033;-71
2022/04/18 09:11:32;;;;;;;4.40;1.98;;;21.40;99.90;;;;;;5040194;28;20050;-70
2022/04/18 09:14:07;;;;;;;1.95;1.67;;;21.30;99.90;;;;;;5038076;28;20080;-70
2022/04/18 09:16:36;;;;;;;3.78;2.00;;;21.20;99.90;;;;;;5036087;28;20127;-70
2022/04/18 09:19:13;;;;;;;4.68;2.40;;;21.20;99.90;;;;;;5035847;28;20025;-71
2022/04/18 09:21:56;;;;;;;4.22;3.00;;;21.10;99.90;;;;;;5036864;28;20017;-72
2022/04/18 09:24:46;;;;;;;5.35;2.95;;;21.10;99.90;;;;;;5037765;28;20164;-70
2022/04/18 09:27:29;;;;;;;3.05;1.65;;;21.00;99.90;;;;;;5037150;28;20035;-70
2022/04/18 09:30:05;;;;;;;3.90;2.42;;;21.00;99.90;;;;;;5035664;28;20604;-69
2022/04/18 09:32:32;;;;;;;9.82;5.90;;;20.90;99.90;;;;;;5032293;28;20094;-73
2022/04/18 09:35:05;;;;;;;14.02;10.43;;;20.60;99.90;;;;;;5036528;28;20151;-71
2022/04/18 09:37:33;;;;;;;13.63;8.65;;;20.60;99.90;;;;;;5037923;28;20063;-70
2022/04/18 09:40:00;;;;;;;8.00;6.30;;;20.70;99.90;;;;;;5038631;28;20040;-73
2022/04/18 09:42:31;;;;;;;9.35;6.70;;;20.70;99.90;;;;;;5037752;28;20035;-72
2022/04/18 09:44:58;;;;;;;7.95;4.70;;;20.60;99.90;;;;;;5039233;28;20024;-69
2022/04/18 09:47:33;;;;;;;6.65;4.05;;;20.50;99.90;;;;;;5020577;28;20043;-71
2022/04/18 09:53:26;;;;;;;5.10;3.42;;;20.40;99.90;;;;;;5039241;28;20052;-70
2022/04/18 09:55:57;;;;;;;6.15;2.55;;;20.60;99.90;;;;;;5039552;28;20040;-72
2022/04/18 09:58:25;;;;;;;5.47;2.45;;;20.50;99.90;;;;;;5038427;28;20025;-69
2022/04/18 10:00:52;;;;;;;4.60;2.20;;;20.50;99.90;;;;;;5019058;28;20366;-66
2022/04/18 10:03:20;;;;;;;2.78;1.92;;;20.50;99.90;;;;;;5020127;28;20025;-68
2022/04/18 10:05:49;;;;;;;4.30;1.92;;;20.60;99.90;;;;;;5043323;28;20051;-69
2022/04/18 10:08:17;;;;;;;2.30;1.67;;;20.70;99.90;;;;;;5040445;28;20037;-67
2022/04/18 10:10:44;;;;;;;3.47;1.35;;;20.80;99.90;;;;;;5041015;28;20090;-69
2022/04/18 10:13:11;;;;;;;1.73;1.33;;;20.80;99.90;;;;;;5040435;28;20486;-71
2022/04/18 10:15:42;;;;;;;4.43;1.90;;;20.90;99.90;;;;;;5040246;28;20805;-71
2022/04/18 10:18:14;;;;;;;2.05;1.65;;;20.80;99.90;;;;;;5038720;28;20029;-66
2022/04/18 10:20:59;;;;;;;;;;;20.70;99.90;;;;;;5037535;28;21113;-65
2022/04/18 10:24:10;;;;;;;3.50;1.50;;;20.80;99.90;;;;;;5035698;28;20383;-70
2022/04/18 10:26:56;;;;;;;3.40;1.85;;;20.80;99.90;;;;;;5030932;28;20056;-69
2022/04/18 10:29:37;;;;;;;2.45;1.55;;;20.80;99.90;;;;;;5036823;28;20044;-68
2022/04/18 10:32:07;;;;;;;2.53;1.70;;;20.70;99.90;;;;;;5034029;28;20354;-69
2022/04/18 10:34:35;;;;;;;1.98;1.25;;;20.60;99.90;;;;;;5037125;28;20040;-69
2022/04/18 10:37:03;;;;;;;2.28;1.80;;;20.50;99.90;;;;;;5067125;23;20071;-68
2022/04/18 10:39:38;;;;;;;4.18;1.80;;;20.30;99.90;;;;;;5034976;28;20049;-67
2022/04/18 10:42:23;;;;;;;3.70;1.50;;;20.10;99.90;;;;;;5036436;28;20506;-70
2022/04/18 10:45:08;;;;;;;3.10;2.13;;;20.00;99.90;;;;;;5039079;28;20029;-69
2022/04/18 10:47:57;;;;;;;3.92;2.25;;;19.90;99.90;;;;;;5018480;28;20029;-67
2022/04/18 10:50:55;;;;;;;4.93;2.20;;;19.90;99.90;;;;;;5037060;28;20756;-68
2022/04/18 10:53:35;;;;;;;4.55;2.55;;;19.80;99.90;;;;;;5029375;28;20049;-70
2022/04/18 10:56:02;;;;;;;4.45;2.50;;;19.70;99.90;;;;;;5037265;28;20035;-69
2022/04/18 10:58:36;;;;;;;3.95;2.40;;;19.60;99.90;;;;;;5037640;28;20434;-65
2022/04/18 11:01:08;;;;;;;4.07;2.28;;;19.50;99.90;;;;;;5038127;28;20021;-68
2022/04/18 11:03:38;;;;;;;8.25;3.03;;;19.30;99.90;;;;;;5037707;28;20488;-65
2022/04/18 11:06:18;;;;;;;4.78;2.60;;;19.20;99.90;;;;;;5039340;28;20468;-65
2022/04/18 11:09:03;;;;;;;3.78;2.50;;;19.10;99.90;;;;;;5040329;28;20761;-66
2022/04/18 11:11:48;;;;;;;4.45;2.55;;;19.00;99.90;;;;;;5040806;28;20040;-66
2022/04/18 11:14:24;;;;;;;5.78;2.95;;;19.10;99.90;;;;;;5040996;28;20182;-70
2022/04/18 11:17:02;;;;;;;4.22;2.53;;;19.10;99.90;;;;;;5042004;28;20474;-71
2022/04/18 11:19:42;;;;;;;4.68;2.40;;;19.10;99.90;;;;;;5038459;28;20027;-65
2022/04/18 11:22:16;;;;;;;8.70;3.15;;;19.00;99.90;;;;;;5038530;28;20355;-65
2022/04/18 11:24:51;;;;;;;4.65;2.55;;;19.00;99.90;;;;;;5037713;28;20021;-65
2022/04/18 11:27:27;;;;;;;4.80;2.58;;;18.80;99.90;;;;;;5037238;28;20029;-65
2022/04/18 11:30:00;;;;;;;5.15;2.80;;;18.80;99.90;;;;;;5038941;28;20037;-70
2022/04/18 11:32:38;;;;;;;4.15;2.78;;;18.70;99.90;;;;;;5036480;28;20033;-68
2022/04/18 11:35:08;;;;;;;6.65;2.45;;;18.60;99.90;;;;;;5038457;28;20041;-72
2022/04/18 11:37:46;;;;;;;5.30;2.58;;;18.50;99.90;;;;;;5036476;28;20045;-64
2022/04/18 11:40:16;;;;;;;4.47;2.45;;;18.50;99.90;;;;;;5032783;28;20017;-70
2022/04/18 11:42:45;;;;;;;4.25;2.78;;;18.40;99.90;;;;;;5037382;28;20036;-68
2022/04/18 11:45:23;;;;;;;4.47;2.33;;;18.30;99.90;;;;;;5036056;28;20025;-64
2022/04/18 11:47:50;;;;;;;3.72;3.05;;;18.20;99.90;;;;;;5040604;28;20398;-67
2022/04/18 11:50:21;;;;;;;3.53;2.60;;;18.20;99.90;;;;;;5038675;28;20037;-66
2022/04/18 11:52:50;;;;;;;4.18;2.60;;;18.20;99.90;;;;;;5042100;28;20041;-66
2022/04/18 11:55:18;;;;;;;4.82;2.70;;;18.20;99.90;;;;;;5042999;28;20494;-64
2022/04/18 11:57:47;;;;;;;6.97;2.60;;;18.20;99.90;;;;;;5041133;28;20040;-63
2022/04/18 12:08:47;;;;;;;4.35;2.58;;;18.60;99.90;;;;;;5040930;28;20426;-67
2022/04/18 12:11:15;;;;;;;4.97;2.58;;;18.60;99.90;;;;;;5041427;28;20029;-65
2022/04/18 12:13:46;;;;;;;7.35;2.70;;;18.40;99.90;;;;;;5041029;28;20040;-68
2022/04/18 12:16:18;;;;;;;3.07;2.30;;;18.50;99.90;;;;;;5041168;28;20525;-68
2022/04/18 12:18:46;;;;;;;4.60;2.47;;;18.40;99.90;;;;;;5040161;28;20682;-67
2022/04/18 12:21:13;;;;;;;3.40;2.20;;;18.30;99.90;;;;;;5041779;28;20033;-69
2022/04/18 12:23:40;;;;;;;3.05;2.13;;;18.20;99.90;;;;;;5041692;28;20465;-65
2022/04/18 12:26:12;;;;;;;3.35;2.42;;;18.20;99.90;;;;;;5041685;28;20021;-68
2022/04/18 12:28:39;;;;;;;3.13;2.30;;;18.10;99.90;;;;;;5040398;28;20120;-66
2022/04/18 12:31:10;;;;;;;3.80;2.10;;;18.00;99.90;;;;;;5043525;28;20036;-67
2022/04/18 12:33:49;;;;;;;3.83;2.38;;;17.90;99.90;;;;;;5040795;28;20029;-65
2022/04/18 12:36:26;;;;;;;4.07;2.13;;;17.80;99.90;;;;;;5038856;28;20065;-67
2022/04/18 12:38:54;;;;;;;4.20;2.55;;;17.80;99.90;;;;;;5042242;28;20488;-68
2022/04/18 12:41:40;;;;;;;3.58;2.20;;;17.60;99.90;;;;;;5041739;28;20017;-64
2022/04/18 12:44:12;;;;;;;2.95;1.92;;;17.60;99.90;;;;;;5042042;28;20025;-71
2022/04/18 12:46:41;;;;;;;2.95;2.65;;;17.60;99.90;;;;;;5037616;28;20020;-68
2022/04/18 12:49:11;;;;;;;4.57;2.60;;;17.60;99.90;;;;;;5031583;28;20029;-67
2022/04/18 12:51:40;;;;;;;3.83;2.42;;;17.50;99.90;;;;;;5038119;28;20024;-68
2022/04/18 12:54:26;;;;;;;3.67;2.08;;;17.50;99.90;;;;;;5037393;28;20029;-68
2022/04/18 12:56:53;;;;;;;4.50;2.20;;;17.50;99.90;;;;;;5045214;28;20065;-69
2022/04/18 12:59:26;;;;;;;3.38;2.50;;;17.50;99.90;;;;;;5027666;28;20140;-71
2022/04/18 13:02:04;;;;;;;3.72;2.20;;;17.60;99.90;;;;;;5047132;28;20472;-67
2022/04/18 13:04:31;;;;;;;3.10;2.15;;;17.60;99.90;;;;;;5046625;28;20029;-67
2022/04/18 13:07:05;;;;;;;4.05;2.22;;;17.50;99.90;;;;;;5046376;28;20462;-68
2022/04/18 13:09:32;;;;;;;5.53;2.10;;;17.40;99.90;;;;;;5044099;28;20033;-65
2022/04/18 13:12:05;;;;;;;2.80;1.83;;;17.40;99.90;;;;;;5048677;28;20488;-68
2022/04/18 13:14:34;;;;;;;3.97;1.90;;;17.40;99.90;;;;;;5048606;28;20029;-66
2022/04/18 13:17:11;;;;;;;3.92;2.00;;;17.50;99.90;;;;;;5049438;28;20229;-71
2022/04/18 13:19:39;;;;;;;3.72;1.85;;;17.50;99.90;;;;;;5047353;28;20035;-71
2022/04/18 13:22:07;;;;;;;3.90;2.13;;;17.50;99.90;;;;;;5048351;28;20025;-68
2022/04/18 13:24:34;;;;;;;4.95;2.13;;;17.50;99.90;;;;;;5048069;28;20528;-69